Airfield :
LOGIN :

Register | Disclaimer

   EN    FR    IT 

 










Legend :    VFR   Marginal VFR   IFR   Intensive IFR   Very Intensive IFR
Visi :
Ceiling :
>= 8 km
>= 3000ft
5 to 8 km
1000 to 3000 ft
1500m to 5 km
500 to 1000 ft
800 to 1500m
200 to 500 ft
< 800m
< 200 ft
Symbols :   Thunderstorms  Fog  Heavy snow  Heavy precipitations  Wind > 20 kt
SIGMETs :     Misc.  Thunderstorms  Icing  Turbulence  Mountain Waves  Volcanic Ashes







- Airport Elevation : 74 ft
- IATA code : NDZ


ETMN - Cuxhaven Nordholz Sea AB

CURRENT METAR :
  • 221220Z 18003KT 8000 BKN019 01/M02 Q1027 WHT WHT

EXPIRED METARs :
  • 221120Z VRB03KT 6000 BKN021 01/M02 Q1027 WHT WHT
  • 221020Z 15005KT 5000 -SN BR FEW006 BKN021 00/M02 Q1027 WHT WHT TEMPO YLO
  • 221000Z 15005KT 3500 -SN BR FEW006 BKN022 M00/M02 Q1027 YLO WHT TEMPO YLO
  • 220951Z 15005KT 4000 -SN BR BKN023 M00/M02 Q1027 GRN WHT TEMPO YLO

TAF TAF ETMN
Valid from the 22 at 12:00 until the 22 at 21:00 UTC


221125Z 2212/2221 VRB03KT 5000 BR FEW007 BKN018
TEMPO 2213/2218 02005KT 4000 BR SCT005 BKN010
TEMPO 2218/2221 07004KT 9999 NSW SCT012 SCT040
No reported NOTAMs for that airfield.



MET'MAP, your aeronautical weather chart ! - Copyright ORBIFLY December 2007 - Disclaimer

ORBIFLY MET'MAP TEAM :

Programming & Development : Alexandra Zaïnal
Concept & Development : Baudouin d'Aumeries
Co-Development & Prog : Marc-Olivier Méhu
Technical & hardware support : Manuel Goepfert

Contact : metmap@orbifly.com




SOURCES & CREDITS :

   NOAA